Time;durP1;ratioP1;P1;durP2;ratioP2;P2;SDS_P1;SDS_P2;PMS_P1;PMS_P2;Temp;Humidity;BMP_temperature;BMP_pressure;BME280_temperature;BME280_humidity;BME280_pressure;Samples;Min_cycle;Max_cycle;Signal;HPM_P1;HPM_P2
2022/07/05 00:02:06;;;;;;;6.75;2.10;;;18.90;99.90;;;;;;5089912;28;20078;-57
2022/07/05 00:04:32;;;;;;;9.52;2.30;;;18.90;99.90;;;;;;5089458;28;20047;-57
2022/07/05 00:09:41;;;;;;;8.18;2.40;;;18.90;99.90;;;;;;5074214;28;20067;-58
2022/07/05 00:12:08;;;;;;;7.55;2.05;;;19.00;99.90;;;;;;5095710;28;20433;-57
2022/07/05 00:14:33;;;;;;;10.07;2.33;;;18.90;99.90;;;;;;5094337;28;20042;-57
2022/07/05 00:16:59;;;;;;;9.73;2.45;;;18.90;99.90;;;;;;5093822;28;20123;-57
2022/07/05 00:19:25;;;;;;;7.40;2.28;;;18.90;99.90;;;;;;5093523;28;20484;-57
2022/07/05 00:21:50;;;;;;;6.32;1.92;;;18.90;99.90;;;;;;5093835;28;20031;-57
2022/07/05 00:24:16;;;;;;;6.90;2.10;;;18.90;99.90;;;;;;5094886;28;20028;-57
2022/07/05 00:26:42;;;;;;;7.97;2.10;;;18.90;99.90;;;;;;5094997;28;20412;-58
2022/07/05 00:29:07;;;;;;;6.05;2.00;;;18.90;99.90;;;;;;5092222;28;20130;-58
2022/07/05 00:31:33;;;;;;;7.65;2.20;;;18.90;99.90;;;;;;5093478;28;20039;-58
2022/07/05 00:33:59;;;;;;;7.20;2.00;;;18.80;99.90;;;;;;5092222;28;20016;-58
2022/07/05 00:36:24;;;;;;;10.50;2.53;;;18.80;99.90;;;;;;5093745;28;20479;-58
2022/07/05 00:38:50;;;;;;;9.15;2.42;;;18.90;99.90;;;;;;5093739;28;20024;-57
2022/07/05 00:41:16;;;;;;;9.02;2.30;;;18.90;99.90;;;;;;5093361;28;20028;-57
2022/07/05 00:43:56;;;;;;;7.82;2.17;;;18.90;99.90;;;;;;5093319;28;20039;-58
2022/07/05 00:46:22;;;;;;;6.65;2.35;;;18.90;99.90;;;;;;5093530;28;20114;-58
2022/07/05 00:48:48;;;;;;;8.77;2.30;;;18.90;99.90;;;;;;5091635;28;20060;-58
2022/07/05 00:51:14;;;;;;;7.90;2.30;;;18.90;99.90;;;;;;5094409;28;20027;-58
2022/07/05 00:53:40;;;;;;;10.45;2.55;;;18.80;99.90;;;;;;5094625;28;20031;-58
2022/07/05 00:56:06;;;;;;;11.45;2.35;;;18.80;99.90;;;;;;5092934;28;20086;-58
2022/07/05 00:58:33;;;;;;;7.68;2.05;;;18.80;99.90;;;;;;5092932;28;20106;-58
2022/07/05 01:01:01;;;;;;;8.82;2.50;;;18.80;99.90;;;;;;5092657;28;20807;-57
2022/07/05 01:03:27;;;;;;;9.27;2.28;;;18.80;99.90;;;;;;5093514;28;20029;-58
2022/07/05 01:05:54;;;;;;;7.38;2.17;;;18.80;99.90;;;;;;5094485;28;20082;-58
2022/07/05 01:08:22;;;;;;;9.68;2.33;;;18.80;99.90;;;;;;5092802;28;20040;-56
2022/07/05 01:10:48;;;;;;;7.90;2.15;;;18.80;99.90;;;;;;5093219;28;20095;-58
2022/07/05 01:13:14;;;;;;;7.28;2.20;;;18.80;99.90;;;;;;5090103;28;20123;-57
2022/07/05 01:15:41;;;;;;;7.22;2.15;;;18.70;99.90;;;;;;5091047;28;20016;-58
2022/07/05 01:18:08;;;;;;;6.32;2.00;;;18.80;99.90;;;;;;5094725;28;20031;-58
2022/07/05 01:20:35;;;;;;;11.45;2.35;;;18.70;99.90;;;;;;5093136;28;20091;-58
2022/07/05 01:23:04;;;;;;;7.82;2.33;;;18.70;99.90;;;;;;5092148;28;20496;-58
2022/07/05 01:25:30;;;;;;;10.18;2.67;;;18.70;99.90;;;;;;5092480;28;20561;-58
2022/07/05 01:27:59;;;;;;;9.90;2.22;;;18.70;99.90;;;;;;5090930;28;20607;-58
2022/07/05 01:30:25;;;;;;;5.85;2.47;;;18.70;99.90;;;;;;5092233;28;20107;-58
2022/07/05 01:32:51;;;;;;;9.55;2.42;;;18.70;99.90;;;;;;5094255;28;20024;-58
2022/07/05 01:35:20;;;;;;;7.32;2.15;;;18.60;99.90;;;;;;5092370;28;20392;-58
2022/07/05 01:37:50;;;;;;;7.18;2.05;;;18.60;99.90;;;;;;5092294;28;20078;-57
2022/07/05 01:40:17;;;;;;;6.90;2.40;;;18.60;99.90;;;;;;5092203;28;20480;-58
2022/07/05 01:42:43;;;;;;;7.05;1.95;;;18.60;99.90;;;;;;5092341;28;20048;-57
2022/07/05 01:45:09;;;;;;;10.57;2.65;;;18.60;99.90;;;;;;5093618;28;20370;-57
2022/07/05 01:47:44;;;;;;;7.60;2.45;;;18.60;99.90;;;;;;5091085;28;20029;-57
2022/07/05 01:50:15;;;;;;;8.32;2.35;;;18.50;99.90;;;;;;5092016;28;20028;-57
2022/07/05 01:52:45;;;;;;;8.07;2.50;;;18.60;99.90;;;;;;5091006;28;20030;-57
2022/07/05 01:55:11;;;;;;;7.00;2.30;;;18.50;99.90;;;;;;5089249;28;20020;-57
2022/07/05 01:57:36;;;;;;;10.02;2.58;;;18.50;99.90;;;;;;5091804;28;20031;-57
2022/07/05 02:00:03;;;;;;;8.65;2.25;;;18.50;99.90;;;;;;5089377;28;20027;-58
2022/07/05 02:02:28;;;;;;;8.27;2.33;;;18.50;99.90;;;;;;5092278;28;20028;-58
2022/07/05 02:04:54;;;;;;;8.75;2.40;;;18.60;99.90;;;;;;5091741;28;20404;-58
2022/07/05 02:07:20;;;;;;;7.40;2.28;;;18.50;99.90;;;;;;5090243;28;20089;-56
2022/07/05 02:09:45;;;;;;;9.68;2.35;;;18.50;99.90;;;;;;5091544;28;20054;-57
2022/07/05 02:12:11;;;;;;;8.48;2.60;;;18.50;99.90;;;;;;5093047;28;20016;-56
2022/07/05 02:14:37;;;;;;;9.32;2.60;;;18.40;99.90;;;;;;5091835;28;20574;-58
2022/07/05 02:17:03;;;;;;;8.38;2.38;;;18.50;99.90;;;;;;5091623;28;20024;-58
2022/07/05 02:19:29;;;;;;;11.65;3.03;;;18.40;99.90;;;;;;5091961;28;20060;-57
2022/07/05 02:21:55;;;;;;;9.07;2.28;;;18.40;99.90;;;;;;5091453;28;20484;-58
2022/07/05 02:24:21;;;;;;;6.05;2.25;;;18.40;99.90;;;;;;5091555;28;20032;-58
2022/07/05 02:26:48;;;;;;;8.38;2.40;;;18.40;99.90;;;;;;5091443;28;20066;-57
2022/07/05 02:29:14;;;;;;;7.05;2.20;;;18.40;99.90;;;;;;5090985;28;20438;-58
2022/07/05 02:31:39;;;;;;;6.00;2.33;;;18.40;99.90;;;;;;5090205;28;20036;-58
2022/07/05 02:34:05;;;;;;;6.95;2.35;;;18.30;99.90;;;;;;5088692;28;20016;-57
2022/07/05 02:36:31;;;;;;;8.98;2.47;;;18.30;99.90;;;;;;5091408;28;20046;-55
2022/07/05 02:38:56;;;;;;;7.60;2.55;;;18.30;99.90;;;;;;5092979;28;20027;-57
2022/07/05 02:41:22;;;;;;;9.07;2.53;;;18.30;99.90;;;;;;5091037;28;20020;-57
2022/07/05 02:43:48;;;;;;;10.55;2.47;;;18.20;99.90;;;;;;5090944;28;20054;-58
2022/07/05 02:46:14;;;;;;;7.90;2.28;;;18.20;99.90;;;;;;5089408;28;20028;-57
2022/07/05 02:48:40;;;;;;;9.88;2.72;;;18.20;99.90;;;;;;5090734;28;20040;-58
2022/07/05 02:51:06;;;;;;;8.70;2.38;;;18.20;99.90;;;;;;5093121;28;20020;-57
2022/07/05 02:53:34;;;;;;;10.65;2.35;;;18.00;99.90;;;;;;5091146;28;20495;-58
2022/07/05 02:55:59;;;;;;;9.23;2.28;;;18.10;99.90;;;;;;5090855;28;20099;-58
2022/07/05 02:58:25;;;;;;;6.70;2.50;;;18.00;99.90;;;;;;5090522;28;20052;-58
2022/07/05 03:00:51;;;;;;;8.05;2.40;;;17.90;99.90;;;;;;5089794;28;20031;-57
2022/07/05 03:03:17;;;;;;;9.95;2.50;;;17.80;99.90;;;;;;5091505;28;20060;-57
2022/07/05 03:05:43;;;;;;;8.23;2.25;;;17.80;99.90;;;;;;5092108;28;20016;-58
2022/07/05 03:08:08;;;;;;;11.73;2.78;;;17.80;99.90;;;;;;5090420;28;20510;-56
2022/07/05 03:10:35;;;;;;;6.55;2.35;;;17.80;99.90;;;;;;5089076;28;20016;-58
2022/07/05 03:13:01;;;;;;;7.32;1.90;;;17.80;99.90;;;;;;5088758;28;20059;-56
2022/07/05 03:15:27;;;;;;;7.10;2.42;;;17.70;99.90;;;;;;5090730;28;20553;-58
2022/07/05 03:17:53;;;;;;;5.82;2.40;;;17.70;99.90;;;;;;5092402;28;20115;-58
2022/07/05 03:20:19;;;;;;;9.18;2.40;;;17.70;99.90;;;;;;5090459;28;20152;-58
2022/07/05 03:22:44;;;;;;;7.45;2.55;;;17.70;99.90;;;;;;5090280;28;20058;-58
2022/07/05 03:25:11;;;;;;;7.60;2.47;;;17.50;99.90;;;;;;5089080;28;20380;-58
2022/07/05 03:27:37;;;;;;;5.75;2.22;;;17.60;99.90;;;;;;5090044;28;20063;-58
2022/07/05 03:30:04;;;;;;;5.70;2.30;;;17.50;99.90;;;;;;5092537;28;20472;-58
2022/07/05 03:32:30;;;;;;;8.00;2.30;;;17.40;99.90;;;;;;5088831;28;20085;-58
2022/07/05 03:34:55;;;;;;;7.57;2.40;;;17.30;99.90;;;;;;5090179;28;20036;-58
2022/07/05 03:37:21;;;;;;;7.85;2.55;;;17.20;99.90;;;;;;5090497;28;20157;-55
2022/07/05 03:39:47;;;;;;;6.95;2.60;;;17.00;99.90;;;;;;5089013;28;20039;-58
2022/07/05 03:42:13;;;;;;;8.65;2.38;;;16.80;99.90;;;;;;5090832;28;20044;-57
2022/07/05 03:44:38;;;;;;;7.05;2.60;;;16.80;99.90;;;;;;5091114;28;20085;-58
2022/07/05 03:47:04;;;;;;;11.35;3.00;;;16.60;99.90;;;;;;5089922;28;20034;-58
2022/07/05 03:49:30;;;;;;;7.68;2.38;;;16.60;99.90;;;;;;5088642;28;20036;-57
2022/07/05 03:51:55;;;;;;;10.32;2.70;;;16.70;99.90;;;;;;5088513;28;20471;-56
2022/07/05 03:54:21;;;;;;;5.22;2.42;;;16.80;99.90;;;;;;5089194;28;20060;-58
2022/07/05 03:56:47;;;;;;;5.95;2.60;;;16.80;99.90;;;;;;5091657;28;20028;-57
2022/07/05 03:59:13;;;;;;;8.63;2.35;;;16.70;99.90;;;;;;5090035;28;20484;-58
2022/07/05 04:01:38;;;;;;;5.80;2.25;;;16.60;99.90;;;;;;5088811;28;20533;-57
2022/07/05 04:04:04;;;;;;;6.35;2.40;;;16.60;99.90;;;;;;5089886;28;20523;-57
2022/07/05 04:06:30;;;;;;;8.25;2.53;;;16.40;99.90;;;;;;5090168;28;20031;-58
2022/07/05 04:08:55;;;;;;;7.95;2.63;;;16.40;99.90;;;;;;5091705;28;20119;-57
2022/07/05 04:11:21;;;;;;;7.20;2.30;;;16.30;99.90;;;;;;5089738;28;20377;-58
2022/07/05 04:13:47;;;;;;;7.60;2.67;;;16.30;99.90;;;;;;5089964;28;20068;-58
2022/07/05 04:16:12;;;;;;;7.93;2.65;;;16.30;99.90;;;;;;5089723;28;20070;-57
2022/07/05 04:18:38;;;;;;;8.02;2.55;;;16.20;99.90;;;;;;5089972;28;20484;-58
2022/07/05 04:21:05;;;;;;;7.70;2.55;;;16.20;99.90;;;;;;5092042;28;20088;-58
2022/07/05 04:23:31;;;;;;;8.68;2.80;;;16.10;99.90;;;;;;5088435;28;20545;-56
2022/07/05 04:25:57;;;;;;;6.43;2.75;;;16.10;99.90;;;;;;5089479;28;20028;-58
2022/07/05 04:28:22;;;;;;;8.75;2.65;;;16.00;99.90;;;;;;5088241;28;20040;-58
2022/07/05 04:30:48;;;;;;;5.63;2.70;;;16.00;99.90;;;;;;5088667;28;20109;-57
2022/07/05 04:33:14;;;;;;;6.55;2.55;;;16.00;99.90;;;;;;5090771;28;20020;-58
2022/07/05 04:35:39;;;;;;;7.03;2.55;;;16.00;99.90;;;;;;5090513;28;20457;-57
2022/07/05 04:38:05;;;;;;;7.57;2.33;;;15.90;99.90;;;;;;5089894;28;20077;-57
2022/07/05 04:40:31;;;;;;;7.68;2.63;;;16.00;99.90;;;;;;5089164;28;20051;-56
2022/07/05 04:42:57;;;;;;;9.23;2.70;;;16.00;99.90;;;;;;5089382;28;20425;-57
2022/07/05 04:45:22;;;;;;;8.18;2.65;;;15.90;99.90;;;;;;5089946;28;20028;-57
2022/07/05 04:47:48;;;;;;;8.82;2.97;;;15.80;99.90;;;;;;5091432;28;20130;-57
2022/07/05 04:50:14;;;;;;;5.93;2.72;;;15.90;99.90;;;;;;5089435;28;20039;-57
2022/07/05 04:52:40;;;;;;;5.90;2.35;;;15.90;99.90;;;;;;5088255;28;20027;-57
2022/07/05 04:55:06;;;;;;;7.57;2.70;;;15.90;99.90;;;;;;5089262;28;20036;-57
2022/07/05 04:57:39;;;;;;;7.25;2.80;;;15.90;99.90;;;;;;5091117;28;20022;-56
2022/07/05 05:00:05;;;;;;;8.57;2.60;;;15.90;99.90;;;;;;5091211;28;20456;-57
2022/07/05 05:02:31;;;;;;;7.43;2.70;;;16.00;99.90;;;;;;5091832;28;20036;-57
2022/07/05 05:04:57;;;;;;;8.18;3.08;;;16.10;99.90;;;;;;5093094;28;20035;-58
2022/07/05 05:07:22;;;;;;;9.23;3.70;;;16.10;99.90;;;;;;5091578;28;20070;-56
2022/07/05 05:09:48;;;;;;;10.25;3.10;;;16.10;99.90;;;;;;5091101;28;20111;-57
2022/07/05 05:12:14;;;;;;;10.23;2.80;;;16.20;99.90;;;;;;5093938;28;20032;-56
2022/07/05 05:14:39;;;;;;;8.10;3.03;;;16.20;99.90;;;;;;5092674;28;20028;-58
2022/07/05 05:17:05;;;;;;;7.63;2.60;;;16.30;99.90;;;;;;5092685;28;20494;-57
2022/07/05 05:19:31;;;;;;;9.23;3.13;;;16.40;99.90;;;;;;5092915;28;20500;-58
2022/07/05 05:21:56;;;;;;;7.10;2.67;;;16.40;99.90;;;;;;5090950;28;20519;-56
2022/07/05 05:24:22;;;;;;;4.45;2.45;;;16.50;99.90;;;;;;5092714;28;20028;-57
2022/07/05 05:26:49;;;;;;;7.65;2.80;;;16.60;99.90;;;;;;5093687;28;20024;-53
2022/07/05 05:29:14;;;;;;;6.65;2.85;;;17.80;99.90;;;;;;5092460;28;20032;-57
2022/07/05 05:31:40;;;;;;;5.95;2.58;;;19.30;99.90;;;;;;5092388;28;20400;-57
2022/07/05 05:34:06;;;;;;;7.28;2.40;;;20.10;99.90;;;;;;5092367;28;20036;-57
2022/07/05 05:36:31;;;;;;;6.53;2.65;;;21.20;99.90;;;;;;5092164;28;20054;-57
2022/07/05 05:38:57;;;;;;;6.85;2.40;;;21.80;99.90;;;;;;5093914;28;20035;-57
2022/07/05 05:41:23;;;;;;;8.57;2.60;;;21.90;99.90;;;;;;5092132;28;20764;-55
2022/07/05 05:43:48;;;;;;;7.22;2.25;;;21.80;99.90;;;;;;5092165;28;20065;-57
2022/07/05 05:46:14;;;;;;;6.40;2.33;;;21.10;99.90;;;;;;5090584;28;20027;-57
2022/07/05 05:48:40;;;;;;;8.10;2.20;;;20.90;99.90;;;;;;5091048;28;20043;-57
2022/07/05 05:51:05;;;;;;;5.78;2.40;;;22.10;99.90;;;;;;5093743;28;20035;-57
2022/07/05 05:53:31;;;;;;;7.85;2.60;;;22.90;99.90;;;;;;5092238;28;20028;-58
2022/07/05 05:55:56;;;;;;;7.40;2.65;;;24.20;99.90;;;;;;5091941;28;20029;-57
2022/07/05 05:58:24;;;;;;;7.00;2.28;;;24.60;99.90;;;;;;5092240;28;20101;-57
2022/07/05 06:00:53;;;;;;;9.43;2.45;;;25.50;99.90;;;;;;5092006;28;20519;-57
2022/07/05 06:03:23;;;;;;;7.80;2.42;;;26.10;99.90;;;;;;5092312;28;20027;-57
2022/07/05 06:05:49;;;;;;;7.75;2.45;;;26.30;99.90;;;;;;5091625;28;20043;-58
2022/07/05 06:08:15;;;;;;;10.25;2.22;;;26.50;99.90;;;;;;5091475;28;20083;-56
2022/07/05 06:10:41;;;;;;;8.82;2.30;;;27.10;99.90;;;;;;5091637;28;20028;-58
2022/07/05 06:13:09;;;;;;;5.85;2.03;;;26.80;99.90;;;;;;5091851;28;20078;-57
2022/07/05 06:15:36;;;;;;;8.13;2.38;;;27.30;99.90;;;;;;5075967;28;20508;-57
2022/07/05 06:18:02;;;;;;;8.25;2.40;;;27.80;99.90;;;;;;5093517;28;20027;-58
2022/07/05 06:20:31;;;;;;;7.55;2.38;;;29.20;99.90;;;;;;5091150;28;20462;-58
2022/07/05 06:22:57;;;;;;;10.45;2.35;;;29.30;99.80;;;;;;5091716;28;20024;-57
2022/07/05 06:25:23;;;;;;;6.68;2.20;;;29.80;99.20;;;;;;5090108;28;20077;-58
2022/07/05 06:28:01;;;;;;;7.45;2.28;;;30.50;98.40;;;;;;5089860;28;20536;-58
2022/07/05 06:30:29;;;;;;;9.95;2.45;;;30.40;97.40;;;;;;5091817;28;20055;-58
2022/07/05 06:32:55;;;;;;;7.05;2.30;;;30.90;97.10;;;;;;5093171;28;20039;-58
2022/07/05 06:35:22;;;;;;;8.38;2.28;;;31.40;96.30;;;;;;5090883;28;20523;-58
2022/07/05 06:37:53;;;;;;;7.53;2.30;;;30.30;95.70;;;;;;5091230;28;20107;-58
2022/07/05 06:40:24;;;;;;;9.25;2.33;;;29.80;97.00;;;;;;5089722;28;20031;-58
2022/07/05 06:42:51;;;;;;;8.18;2.10;;;31.80;95.80;;;;;;5091113;28;20047;-57
2022/07/05 06:45:17;;;;;;;9.52;2.20;;;32.40;94.90;;;;;;5092183;28;20442;-58
2022/07/05 06:47:43;;;;;;;5.78;2.08;;;32.70;94.30;;;;;;5092316;28;20066;-58
2022/07/05 06:50:10;;;;;;;5.88;1.90;;;32.30;93.70;;;;;;5089388;28;20055;-59
2022/07/05 06:52:36;;;;;;;7.55;2.22;;;32.20;94.40;;;;;;5090965;28;20020;-59
2022/07/05 06:55:03;;;;;;;7.07;2.08;;;32.60;93.90;;;;;;5090934;28;20593;-58
2022/07/05 06:57:29;;;;;;;9.20;2.20;;;33.40;93.10;;;;;;5090878;28;20291;-59
2022/07/05 06:59:55;;;;;;;6.53;2.00;;;33.40;92.00;;;;;;5092693;28;20474;-58
2022/07/05 07:02:21;;;;;;;8.13;2.10;;;33.20;91.00;;;;;;5090759;28;20031;-58
2022/07/05 07:04:48;;;;;;;5.78;2.10;;;34.00;92.30;;;;;;5088921;28;20476;-58
2022/07/05 07:09:59;;;;;;;8.82;1.83;;;35.60;89.40;;;;;;5091246;28;20396;-57
2022/07/05 07:12:25;;;;;;;7.65;2.00;;;35.10;90.30;;;;;;5090817;28;20377;-57
2022/07/05 07:14:51;;;;;;;5.85;2.00;;;35.70;88.90;;;;;;5092445;28;20194;-58
2022/07/05 07:17:16;;;;;;;5.00;1.63;;;36.50;84.40;;;;;;5089320;28;20476;-58
2022/07/05 07:19:42;;;;;;;4.22;1.60;;;35.80;85.20;;;;;;5088146;28;20073;-57
2022/07/05 07:22:08;;;;;;;4.35;1.70;;;35.70;84.00;;;;;;5090405;28;20020;-58
2022/07/05 07:24:33;;;;;;;5.47;1.90;;;35.60;85.90;;;;;;5090393;28;20047;-58
2022/07/05 07:27:06;;;;;;;7.10;2.10;;;36.50;83.70;;;;;;5092523;28;20107;-58
2022/07/05 07:29:33;;;;;;;5.77;1.90;;;35.40;81.10;;;;;;5089037;28;20040;-57
2022/07/05 07:32:00;;;;;;;4.68;1.80;;;34.90;81.00;;;;;;5090279;28;20382;-58
2022/07/05 07:34:29;;;;;;;6.35;1.77;;;33.00;83.50;;;;;;5089677;28;20035;-58
2022/07/05 07:36:56;;;;;;;6.68;1.80;;;33.10;85.70;;;;;;5090126;28;20034;-58
2022/07/05 07:39:22;;;;;;;5.15;1.50;;;36.80;82.60;;;;;;5090378;28;20016;-58
2022/07/05 07:41:48;;;;;;;6.22;1.85;;;33.50;81.70;;;;;;5092008;28;20051;-57
2022/07/05 07:44:14;;;;;;;8.50;1.88;;;32.30;83.80;;;;;;5088405;28;20028;-57
2022/07/05 07:46:40;;;;;;;9.55;2.05;;;32.70;87.50;;;;;;5088452;28;20038;-57
2022/07/05 07:49:10;;;;;;;5.05;2.00;;;36.00;83.10;;;;;;5089626;28;20040;-58
2022/07/05 07:51:37;;;;;;;7.85;2.00;;;37.50;79.80;;;;;;5074131;28;20461;-56
2022/07/05 07:54:03;;;;;;;5.97;1.70;;;37.90;78.90;;;;;;5087604;28;20020;-58
2022/07/05 07:56:29;;;;;;;5.72;1.80;;;36.30;79.60;;;;;;5089857;28;20028;-58
2022/07/05 07:58:55;;;;;;;13.45;2.75;;;35.10;80.80;;;;;;5089567;28;20016;-57
2022/07/05 08:01:21;;;;;;;4.93;1.88;;;37.20;78.00;;;;;;5089525;28;20035;-57
2022/07/05 08:03:46;;;;;;;7.45;2.03;;;34.30;78.90;;;;;;5089676;28;20085;-57
2022/07/05 08:06:13;;;;;;;7.25;1.80;;;34.40;79.90;;;;;;5091330;28;20020;-59
2022/07/05 08:08:40;;;;;;;6.60;2.10;;;34.50;80.90;;;;;;5090227;28;20036;-57
2022/07/05 08:11:08;;;;;;;4.40;1.52;;;36.40;77.20;;;;;;5089573;28;20036;-58
2022/07/05 08:13:34;;;;;;;4.05;1.90;;;36.00;79.00;;;;;;5089614;28;20553;-58
2022/07/05 08:16:00;;;;;;;4.95;1.60;;;35.40;77.30;;;;;;5089328;28;20103;-58
2022/07/05 08:23:56;;;;;;;4.53;1.55;;;40.10;74.90;;;;;;5090770;28;20047;-57
2022/07/05 08:26:22;;;;;;;5.18;1.75;;;37.40;76.20;;;;;;5088390;28;20024;-58
2022/07/05 08:28:48;;;;;;;6.88;1.67;;;36.70;75.20;;;;;;5088920;28;20561;-58
2022/07/05 08:31:14;;;;;;;6.28;2.22;;;37.90;75.30;;;;;;5088874;28;20062;-58
2022/07/05 08:33:39;;;;;;;4.60;1.50;;;37.90;75.60;;;;;;5092901;28;20052;-58
2022/07/05 08:36:05;;;;;;;3.78;1.73;;;38.20;72.10;;;;;;5095293;28;20039;-58
2022/07/05 08:38:31;;;;;;;6.10;1.98;;;39.10;73.80;;;;;;5092457;28;20036;-58
2022/07/05 08:40:57;;;;;;;3.88;1.65;;;37.80;72.50;;;;;;5092825;28;20020;-56
2022/07/05 08:43:24;;;;;;;7.70;1.90;;;37.30;76.30;;;;;;5092865;28;20048;-58
2022/07/05 08:45:52;;;;;;;5.63;1.50;;;36.30;78.40;;;;;;5093114;28;20036;-58
2022/07/05 08:48:20;;;;;;;5.43;2.10;;;37.90;77.80;;;;;;5093451;28;20047;-58
2022/07/05 08:50:48;;;;;;;5.18;1.70;;;36.10;74.00;;;;;;5090941;28;20035;-58
2022/07/05 08:53:21;;;;;;;8.02;1.65;;;37.40;74.90;;;;;;5093719;28;20028;-58
2022/07/05 08:55:47;;;;;;;4.55;1.50;;;36.50;74.30;;;;;;5091686;28;20020;-58
2022/07/05 08:58:14;;;;;;;6.78;1.50;;;38.30;73.00;;;;;;5091510;28;20048;-58
2022/07/05 09:00:41;;;;;;;5.28;1.95;;;40.50;72.30;;;;;;5087364;28;20034;-56
2022/07/05 09:03:07;;;;;;;3.83;1.73;;;38.80;71.30;;;;;;5093504;28;20522;-58
2022/07/05 09:05:44;;;;;;;5.18;1.42;;;39.50;72.30;;;;;;5093308;28;20036;-57
2022/07/05 09:08:14;;;;;;;6.65;1.80;;;39.00;73.00;;;;;;5092428;28;20557;-58
2022/07/05 09:10:43;;;;;;;5.72;1.77;;;38.00;72.80;;;;;;5092730;28;20024;-58
2022/07/05 09:13:09;;;;;;;4.07;1.42;;;39.70;70.30;;;;;;5091683;28;20028;-58
2022/07/05 09:15:38;;;;;;;3.40;1.50;;;39.20;72.20;;;;;;5075012;28;20027;-57
2022/07/05 09:18:04;;;;;;;3.92;1.70;;;41.60;71.60;;;;;;5092112;28;20099;-58
2022/07/05 09:20:30;;;;;;;3.97;1.40;;;38.90;69.30;;;;;;5092209;28;20154;-58
2022/07/05 09:22:56;;;;;;;7.28;1.73;;;36.40;73.30;;;;;;5091254;28;20039;-58
2022/07/05 09:25:29;;;;;;;4.22;1.58;;;36.30;72.00;;;;;;5090645;28;20103;-58
2022/07/05 09:28:03;;;;;;;5.13;1.70;;;41.10;71.80;;;;;;5089447;28;20032;-58
2022/07/05 09:30:38;;;;;;;3.90;1.40;;;41.30;68.00;;;;;;5091859;28;20024;-58
2022/07/05 09:33:10;;;;;;;2.38;1.27;;;42.10;67.80;;;;;;5092350;28;20027;-58
2022/07/05 09:35:38;;;;;;;3.10;1.17;;;41.40;76.20;;;;;;5091451;28;20111;-58
2022/07/05 09:38:04;;;;;;;6.97;1.48;;;39.10;68.90;;;;;;5091868;28;20028;-57
2022/07/05 09:40:44;;;;;;;6.63;1.17;;;37.80;79.90;;;;;;5091782;28;20035;-74
2022/07/05 09:43:15;;;;;;;3.72;1.40;;;37.70;71.10;;;;;;5090127;28;20088;-72
2022/07/05 09:45:51;;;;;;;4.47;1.40;;;32.80;87.20;;;;;;5089063;28;20028;-73
2022/07/05 09:48:17;;;;;;;5.82;1.40;;;29.80;85.20;;;;;;5089955;28;20039;-74
2022/07/05 09:50:46;;;;;;;5.35;1.63;;;29.50;87.20;;;;;;5093702;28;20024;-70
2022/07/05 09:53:12;;;;;;;3.00;1.27;;;30.90;86.80;;;;;;5091755;28;20024;-71
2022/07/05 09:55:38;;;;;;;4.80;1.27;;;30.10;85.10;;;;;;5088428;28;20411;-74
2022/07/05 09:58:04;;;;;;;4.47;1.60;;;29.70;90.00;;;;;;5091603;28;20473;-60
2022/07/05 10:00:30;;;;;;;4.45;1.30;;;28.10;90.00;;;;;;5091710;28;20039;-61
2022/07/05 10:03:01;;;;;;;3.70;1.50;;;26.40;92.20;;;;;;5093617;28;20434;-60
2022/07/05 10:05:30;;;;;;;3.90;1.48;;;25.40;93.30;;;;;;5090976;28;20028;-60
2022/07/05 10:07:56;;;;;;;7.20;1.63;;;;;;;;;;5089053;28;20488;-60
2022/07/05 10:10:23;;;;;;;3.83;1.45;;;;;;;;;;5087148;28;20103;-58
2022/07/05 10:12:53;;;;;;;3.20;1.30;;;;;;;;;;5089684;28;20043;-58
2022/07/05 10:15:20;;;;;;;3.95;1.40;;;;;;;;;;5091794;28;20028;-59
2022/07/05 10:17:48;;;;;;;6.47;1.90;;;;;;;;;;5093193;28;20043;-59
2022/07/05 10:20:24;;;;;;;3.92;1.77;;;;;;;;;;5092321;28;20027;-59
2022/07/05 10:22:52;;;;;;;2.50;1.58;;;;;;;;;;5090023;28;20028;-59
2022/07/05 10:25:18;;;;;;;14.55;8.73;;;;;;;;;;5091395;28;20464;-59
2022/07/05 10:27:44;;;;;;;34.53;14.35;;;;;;;;;;5091392;28;20028;-59
2022/07/05 10:30:12;;;;;;;34.58;13.52;;;;;;;;;;5092813;28;20032;-59
2022/07/05 10:32:38;;;;;;;28.23;7.55;;;;;;;;;;5090699;28;20051;-60
2022/07/05 10:35:05;;;;;;;18.23;4.95;;;;;;;;;;5089487;28;20028;-59
2022/07/05 10:37:32;;;;;;;25.08;6.60;;;;;;;;;;5089457;28;20028;-58
2022/07/05 10:39:59;;;;;;;32.25;9.82;;;;;;;;;;5090189;28;20032;-59
2022/07/05 10:42:27;;;;;;;25.88;7.70;;;;;;;;;;5091146;28;20187;-58
2022/07/05 10:44:53;;;;;;;30.33;8.65;;;;;;;;;;5089928;28;20063;-59
2022/07/05 10:47:19;;;;;;;21.38;6.32;;;;;;;;;;5087247;28;20021;-58
2022/07/05 10:49:59;;;;;;;178.00;39.63;;;;;;;;;;5087676;28;20035;-58
2022/07/05 10:52:27;;;;;;;4.13;1.27;;;;;;;;;;5087757;28;20527;-57
2022/07/05 10:55:12;;;;;;;58.70;20.05;;;;;;;;;;5088639;28;20028;-58
2022/07/05 10:57:38;;;;;;;71.07;25.48;;;;;;;;;;5088905;28;20032;-58
2022/07/05 11:00:11;;;;;;;57.55;34.53;;;;;;;;;;5090050;28;20344;-57
2022/07/05 11:02:40;;;;;;;4.60;1.20;;;;;;;;;;5088040;28;20032;-58
2022/07/05 11:05:06;;;;;;;17.25;9.43;;;;;;;;;;5089648;28;20115;-57
2022/07/05 11:07:51;;;;;;;12.98;5.78;;;;;;;;;;5089698;28;20036;-58
2022/07/05 11:10:17;;;;;;;8.27;2.90;;;;;;;;;;5089441;28;20028;-57
2022/07/05 11:12:43;;;;;;;4.75;2.55;;;;;;;;;;5089881;28;20035;-58
2022/07/05 11:15:10;;;;;;;3.13;1.50;;;;;;;;;;5091557;28;20031;-57
2022/07/05 11:17:37;;;;;;;3.90;1.80;;;;;;;;;;5088547;28;20047;-58
2022/07/05 11:20:09;;;;;;;5.78;1.38;;;;;;;;;;5088208;28;20089;-58
2022/07/05 11:22:36;;;;;;;3.83;1.37;;;;;;;;;;5089688;28;20108;-57
2022/07/05 11:25:04;;;;;;;5.07;1.33;;;;;;;;;;5089115;28;20270;-57
2022/07/05 11:27:32;;;;;;;4.18;1.27;;;;;;;;;;5088883;28;20123;-57
2022/07/05 11:29:58;;;;;;;5.07;1.23;;;;;;;;;;5091673;28;20396;-58
2022/07/05 11:32:30;;;;;;;3.35;1.20;;;;;;;;;;5088819;28;20069;-58
2022/07/05 11:34:57;;;;;;;2.40;1.20;;;;;;;;;;5086468;28;20024;-58
2022/07/05 11:37:24;;;;;;;4.13;1.30;;;;;;;;;;5088390;28;20507;-58
2022/07/05 11:40:10;;;;;;;2.80;1.23;;;;;;;;;;5086769;28;20032;-58
2022/07/05 11:42:39;;;;;;;4.32;1.38;;;;;;;;;;5072373;28;20123;-57
2022/07/05 11:45:08;;;;;;;2.13;1.30;;;;;;;;;;5086932;28;20032;-56
2022/07/05 11:47:35;;;;;;;2.55;1.27;;;;;;;;;;5089591;28;20040;-59
2022/07/05 11:50:01;;;;;;;4.18;1.10;;;;;;;;;;5088723;28;20461;-58
2022/07/05 11:52:28;;;;;;;2.97;1.20;;;;;;;;;;5089689;28;20028;-59
2022/07/05 11:54:54;;;;;;;3.35;1.50;;;;;;;;;;5088361;28;20056;-59
2022/07/05 11:57:21;;;;;;;4.30;1.23;;;;;;;;;;5089067;28;20050;-58
2022/07/05 11:59:47;;;;;;;5.38;1.23;;;;;;;;;;5090302;28;20016;-58
2022/07/05 12:02:13;;;;;;;2.38;1.13;;;;;;;;;;5088389;28;20035;-58
2022/07/05 12:04:39;;;;;;;4.40;1.45;;;;;;;;;;5086959;28;20443;-58
2022/07/05 12:07:06;;;;;;;2.55;1.10;;;;;;;;;;5090622;28;20084;-57
2022/07/05 12:15:06;;;;;;;3.55;1.10;;;;;;;;;;5093725;28;20039;-59
2022/07/05 12:17:34;;;;;;;4.15;1.20;;;;;;;;;;5092940;28;20027;-61
2022/07/05 12:20:00;;;;;;;2.03;1.13;;;;;;;;;;5091486;28;20020;-56
2022/07/05 12:22:30;;;;;;;4.30;1.40;;;;;;;;;;5092639;28;20038;-58
2022/07/05 12:24:58;;;;;;;2.40;1.20;;;;;;;;;;5092856;28;20040;-58
2022/07/05 12:27:25;;;;;;;3.28;1.40;;;;;;;;;;5092496;28;20040;-58
2022/07/05 12:29:51;;;;;;;4.97;1.30;;;;;;;;;;5094488;28;20047;-59
2022/07/05 12:32:17;;;;;;;3.40;1.27;;;;;;;;;;5090862;28;20032;-58
2022/07/05 12:34:43;;;;;;;2.25;1.10;;;;;;;;;;5092802;28;20047;-58
2022/07/05 12:37:09;;;;;;;2.95;1.02;;;;;;;;;;5092537;28;20395;-58
2022/07/05 12:39:35;;;;;;;4.20;1.20;;;;;;;;;;5092980;28;20062;-58
2022/07/05 12:42:02;;;;;;;1.55;1.10;;;;;;;;;;5094216;28;20123;-58
2022/07/05 12:44:28;;;;;;;3.28;1.35;;;;;;;;;;5092659;28;20039;-57
2022/07/05 12:47:04;;;;;;;2.67;1.10;;;;;;;;;;5092397;28;20019;-59
2022/07/05 12:49:30;;;;;;;1.25;1.10;;;;;;;;;;5091802;28;20515;-58
2022/07/05 12:52:03;;;;;;;3.90;1.60;;;;;;;;;;5091582;28;20024;-57
2022/07/05 13:00:03;;;;;;;3.58;1.42;;;;;;;;;;5094243;28;20043;-57
2022/07/05 13:02:39;;;;;;;5.18;1.45;;;;;;;;;;5092115;28;20027;-58
2022/07/05 13:05:09;;;;;;;3.60;1.33;;;;;;;;;;5091990;28;20043;-58
2022/07/05 13:07:42;;;;;;;4.28;1.52;;;;;;;;;;5091671;28;20024;-58
2022/07/05 13:10:34;;;;;;;2.80;1.40;;;;;;;;;;5090878;28;20580;-57
2022/07/05 13:13:01;;;;;;;4.55;1.50;;;;;;;;;;5078115;28;20161;-58
2022/07/05 13:15:28;;;;;;;2.53;1.33;;;;;;;;;;5092034;28;20028;-57
2022/07/05 13:17:54;;;;;;;6.40;1.42;;;;;;;;;;5092664;28;20027;-56
2022/07/05 13:20:22;;;;;;;1.60;1.25;;;;;;;;;;5091581;28;20376;-58
2022/07/05 13:22:48;;;;;;;6.15;1.40;;;;;;;;;;5091624;28;20114;-57
2022/07/05 13:25:15;;;;;;;3.58;1.20;;;;;;;;;;5092064;28;20020;-58
2022/07/05 13:27:41;;;;;;;4.72;1.50;;;;;;;;;;5091756;28;20400;-58
2022/07/05 13:30:08;;;;;;;4.65;1.50;;;;;;;;;;5093842;28;20016;-58
2022/07/05 13:32:34;;;;;;;3.85;1.30;;;;;;;;;;5090354;28;20028;-58
2022/07/05 13:35:00;;;;;;;3.03;1.58;;;;;;;;;;5089983;28;20093;-58